createdAt,value
2019-01-20T00:01:32.031Z,8.00
2019-01-20T00:04:01.277Z,8.00
2019-01-20T00:06:30.525Z,8.53
2019-01-20T00:08:59.763Z,10.87
2019-01-20T00:11:29.102Z,8.50
2019-01-20T00:13:58.343Z,8.77
2019-01-20T00:16:27.592Z,13.90
2019-01-20T00:18:56.834Z,13.07
2019-01-20T00:21:26.101Z,9.90
2019-01-20T00:23:56.340Z,8.93
2019-01-20T00:26:25.587Z,10.83
2019-01-20T00:28:54.818Z,9.47
2019-01-20T00:31:24.066Z,9.73
2019-01-20T00:33:53.294Z,11.00
2019-01-20T00:36:22.543Z,11.90
2019-01-20T00:38:51.782Z,9.57
2019-01-20T00:41:24.399Z,10.77
2019-01-20T00:43:51.959Z,8.97
2019-01-20T00:46:21.258Z,11.37
2019-01-20T00:48:50.481Z,11.27
2019-01-20T00:51:20.085Z,11.17
2019-01-20T00:53:49.338Z,11.37
2019-01-20T00:56:18.593Z,14.43
2019-01-20T00:58:47.855Z,12.00
2019-01-20T01:01:17.090Z,11.03
2019-01-20T01:03:46.350Z,11.57
2019-01-20T01:06:15.838Z,12.27
2019-01-20T01:08:45.109Z,14.17
2019-01-20T01:11:14.349Z,11.40
2019-01-20T01:13:44.596Z,13.80
2019-01-20T01:16:13.820Z,12.67
2019-01-20T01:18:43.091Z,13.80
2019-01-20T01:21:12.336Z,14.67
2019-01-20T01:23:41.578Z,11.70
2019-01-20T01:26:10.818Z,11.70
2019-01-20T01:28:40.045Z,11.67
2019-01-20T01:31:09.304Z,11.70
2019-01-20T01:33:38.537Z,11.93
2019-01-20T01:36:08.743Z,12.17
2019-01-20T01:38:37.982Z,12.20
2019-01-20T01:41:07.221Z,10.17
2019-01-20T01:43:37.415Z,11.97
2019-01-20T01:46:06.676Z,10.47
2019-01-20T01:48:37.844Z,12.07
2019-01-20T01:51:08.105Z,10.90
2019-01-20T01:53:37.342Z,11.77
2019-01-20T01:56:06.607Z,12.73
2019-01-20T01:58:38.437Z,10.13
2019-01-20T02:01:07.694Z,10.83
2019-01-20T02:03:43.699Z,12.47
2019-01-20T02:06:13.948Z,11.13
2019-01-20T02:08:44.167Z,11.30
2019-01-20T02:11:13.419Z,10.57
2019-01-20T02:13:42.654Z,12.53
2019-01-20T02:16:18.793Z,10.97
2019-01-20T02:18:48.085Z,10.53
2019-01-20T02:21:17.371Z,12.73
2019-01-20T02:23:46.658Z,11.47
2019-01-20T02:26:15.889Z,12.57
2019-01-20T02:28:45.151Z,15.80
2019-01-20T02:31:14.391Z,12.60
2019-01-20T02:33:43.672Z,13.93
2019-01-20T02:36:12.940Z,14.07
2019-01-20T02:38:42.203Z,13.70
2019-01-20T02:41:11.450Z,16.73
2019-01-20T02:43:41.633Z,13.73
2019-01-20T02:46:16.778Z,15.10
2019-01-20T02:48:46.039Z,12.00
2019-01-20T02:51:15.280Z,14.67
2019-01-20T02:53:44.532Z,15.83
2019-01-20T02:56:13.791Z,13.03
2019-01-20T02:58:43.056Z,14.23
2019-01-20T03:01:12.297Z,13.07
2019-01-20T03:03:41.538Z,14.47
2019-01-20T03:06:13.747Z,14.63
2019-01-20T03:08:43.001Z,14.13
2019-01-20T03:11:13.157Z,15.13
2019-01-20T03:13:42.397Z,14.37
2019-01-20T03:16:11.637Z,16.70
2019-01-20T03:18:41.066Z,14.17
2019-01-20T03:21:10.318Z,16.30
2019-01-20T03:23:45.858Z,13.33
2019-01-20T03:26:15.091Z,17.80
2019-01-20T03:28:44.337Z,16.57
2019-01-20T03:31:13.579Z,14.17
2019-01-20T03:33:42.822Z,15.40
2019-01-20T03:36:14.472Z,17.47
2019-01-20T03:38:44.657Z,16.03
2019-01-20T03:41:14.913Z,16.70
2019-01-20T03:43:44.169Z,16.33
2019-01-20T03:46:13.457Z,15.93
2019-01-20T03:48:42.691Z,17.00
2019-01-20T03:51:13.929Z,17.33
2019-01-20T03:53:43.190Z,14.60
2019-01-20T03:56:15.230Z,16.07
2019-01-20T03:58:44.465Z,20.30
2019-01-20T04:01:13.713Z,15.37
2019-01-20T04:03:48.738Z,20.00
2019-01-20T04:06:18.013Z,14.90
2019-01-20T04:08:47.285Z,18.23
2019-01-20T04:11:16.529Z,15.90
2019-01-20T04:13:52.606Z,17.10
2019-01-20T04:16:23.844Z,17.13
2019-01-20T04:18:55.103Z,16.70
2019-01-20T04:21:24.350Z,17.30
2019-01-20T04:23:53.609Z,16.33
2019-01-20T04:26:24.816Z,18.07
2019-01-20T04:28:54.102Z,16.13
2019-01-20T04:31:24.358Z,16.20
2019-01-20T04:33:53.620Z,16.77
2019-01-20T04:36:24.825Z,16.03
2019-01-20T04:38:55.018Z,15.50
2019-01-20T04:41:24.305Z,16.30
2019-01-20T04:43:54.541Z,18.57
2019-01-20T04:46:23.786Z,17.27
2019-01-20T04:48:53.064Z,16.13
2019-01-20T04:51:22.279Z,17.93
2019-01-20T04:53:51.704Z,18.43
2019-01-20T04:56:21.131Z,16.00
2019-01-20T04:58:50.369Z,17.77
2019-01-20T05:01:19.642Z,17.80
2019-01-20T05:03:49.882Z,18.97
2019-01-20T05:06:20.099Z,17.13
2019-01-20T05:08:49.344Z,17.23
2019-01-20T05:11:18.603Z,16.13
2019-01-20T05:13:48.806Z,16.40
2019-01-20T05:16:19.092Z,13.83
2019-01-20T05:18:48.348Z,16.23
2019-01-20T05:21:17.590Z,14.47
2019-01-20T05:23:46.817Z,16.27
2019-01-20T05:26:16.064Z,15.97
2019-01-20T05:28:45.321Z,12.03
2019-01-20T05:31:14.551Z,18.47
2019-01-20T05:33:43.789Z,15.73
2019-01-20T05:36:13.052Z,14.37
2019-01-20T05:38:42.309Z,19.43
2019-01-20T05:41:11.555Z,16.53
2019-01-20T05:43:41.762Z,15.73
2019-01-20T05:46:13.219Z,17.27
2019-01-20T05:48:44.378Z,15.57
2019-01-20T05:51:13.622Z,17.00
2019-01-20T05:53:42.891Z,14.53
2019-01-20T05:56:14.738Z,15.67
2019-01-20T05:58:44.028Z,18.17
2019-01-20T06:01:13.277Z,16.27
2019-01-20T06:03:43.527Z,13.70
2019-01-20T06:06:12.782Z,15.00
2019-01-20T06:08:42.140Z,13.47
2019-01-20T06:11:11.579Z,14.87
2019-01-20T06:13:44.500Z,12.40
2019-01-20T06:16:14.763Z,14.67
2019-01-20T06:18:44.960Z,14.43
2019-01-20T06:21:14.224Z,15.70
2019-01-20T06:23:43.522Z,14.13
2019-01-20T06:26:12.810Z,13.63
2019-01-20T06:28:42.056Z,15.33
2019-01-20T06:31:11.334Z,16.57
2019-01-20T06:33:40.635Z,15.23
2019-01-20T06:36:09.893Z,17.13
2019-01-20T06:38:39.134Z,14.00
2019-01-20T06:41:09.387Z,16.67
2019-01-20T06:43:38.621Z,13.80
2019-01-20T06:46:07.882Z,14.67
2019-01-20T06:48:37.126Z,15.33
2019-01-20T06:51:06.362Z,17.33
2019-01-20T06:53:35.602Z,14.40
2019-01-20T06:56:05.795Z,15.07
2019-01-20T06:58:36.026Z,15.80
2019-01-20T07:01:05.274Z,15.37
2019-01-20T07:03:34.527Z,12.70
2019-01-20T07:06:05.087Z,13.77
2019-01-20T07:08:35.346Z,16.57
2019-01-20T07:11:05.582Z,14.10
2019-01-20T07:13:34.884Z,17.13
2019-01-20T07:16:04.120Z,15.13
2019-01-20T07:18:34.328Z,18.73
2019-01-20T07:21:03.639Z,16.20
2019-01-20T07:23:33.845Z,15.77
2019-01-20T07:26:03.072Z,15.53
2019-01-20T07:28:32.318Z,17.50
2019-01-20T07:31:01.575Z,16.03
2019-01-20T07:33:30.840Z,18.57
2019-01-20T07:36:01.068Z,15.77
2019-01-20T07:38:30.293Z,15.20
2019-01-20T07:40:59.563Z,17.10
2019-01-20T07:43:28.803Z,13.80
2019-01-20T07:45:58.072Z,14.23
2019-01-20T07:48:27.304Z,15.13
2019-01-20T07:50:56.558Z,13.00
2019-01-20T07:53:25.805Z,16.40
2019-01-20T07:55:55.078Z,15.40
2019-01-20T07:58:24.316Z,17.57
2019-01-20T08:00:53.598Z,15.27
2019-01-20T08:03:22.882Z,15.30
2019-01-20T08:05:54.131Z,16.30
2019-01-20T08:08:23.392Z,15.63
2019-01-20T08:10:54.646Z,16.23
2019-01-20T08:13:24.855Z,14.23
2019-01-20T08:15:54.126Z,12.60
2019-01-20T08:18:23.384Z,13.87
2019-01-20T08:20:54.650Z,15.07
2019-01-20T08:23:23.902Z,14.43
2019-01-20T08:25:53.131Z,11.40
2019-01-20T08:28:22.405Z,13.73
2019-01-20T08:30:52.650Z,15.00
2019-01-20T08:33:21.997Z,13.30
2019-01-20T08:35:52.158Z,15.57
2019-01-20T08:38:21.442Z,12.63
2019-01-20T08:40:50.681Z,13.87
2019-01-20T08:43:19.946Z,14.63
2019-01-20T08:46:11.643Z,13.63
2019-01-20T08:48:40.881Z,13.23
2019-01-20T08:51:10.499Z,15.43
2019-01-20T08:53:40.713Z,14.10
2019-01-20T08:56:09.941Z,12.97
2019-01-20T08:58:39.173Z,12.67
2019-01-20T09:01:08.421Z,16.97
2019-01-20T09:03:38.656Z,12.83
2019-01-20T09:06:07.987Z,15.13
2019-01-20T09:08:37.237Z,12.10
2019-01-20T09:11:06.493Z,18.50
2019-01-20T09:13:39.785Z,14.63
2019-01-20T09:16:07.015Z,16.73
2019-01-20T09:18:36.269Z,13.40
2019-01-20T09:21:05.492Z,14.37
2019-01-20T09:23:36.701Z,14.93
2019-01-20T09:26:05.949Z,14.60
2019-01-20T09:28:35.189Z,14.93
2019-01-20T09:31:04.419Z,13.57
2019-01-20T09:33:33.667Z,13.10
2019-01-20T09:36:03.843Z,16.83
2019-01-20T09:38:34.046Z,16.17
2019-01-20T09:41:03.317Z,16.60
2019-01-20T09:43:32.528Z,15.90
2019-01-20T09:46:02.847Z,15.30
2019-01-20T09:48:33.090Z,19.40
2019-01-20T09:51:02.324Z,16.03
2019-01-20T09:53:33.545Z,16.47
2019-01-20T09:56:02.815Z,14.50
2019-01-20T09:58:32.057Z,14.90
2019-01-20T10:01:01.325Z,16.33
2019-01-20T10:03:30.572Z,15.27
2019-01-20T10:05:59.819Z,14.07
2019-01-20T10:08:30.046Z,14.33
2019-01-20T10:11:00.293Z,15.33
2019-01-20T10:13:29.539Z,14.90
2019-01-20T10:15:58.781Z,15.40
2019-01-20T10:18:28.032Z,13.73
2019-01-20T10:20:57.299Z,15.77
2019-01-20T10:23:26.567Z,14.40
2019-01-20T10:25:55.802Z,14.57
2019-01-20T10:28:25.095Z,14.10
2019-01-20T10:30:57.029Z,13.70
2019-01-20T10:33:26.263Z,16.47
2019-01-20T10:35:57.141Z,12.47
2019-01-20T10:38:26.473Z,14.03
2019-01-20T10:40:55.707Z,15.00
2019-01-20T10:43:26.917Z,13.90
2019-01-20T10:45:56.175Z,17.47
2019-01-20T10:48:25.424Z,16.53
2019-01-20T10:50:55.625Z,15.43
2019-01-20T10:53:24.863Z,13.73
2019-01-20T10:55:54.102Z,17.43
2019-01-20T10:58:23.358Z,16.27
2019-01-20T11:00:52.587Z,14.43
2019-01-20T11:03:21.885Z,16.70
2019-01-20T11:05:51.129Z,14.50
2019-01-20T11:08:20.371Z,16.17
2019-01-20T11:10:49.719Z,19.20
2019-01-20T11:13:18.975Z,14.13
2019-01-20T11:15:48.217Z,15.13
2019-01-20T11:18:17.482Z,15.87
2019-01-20T11:20:46.731Z,18.73
2019-01-20T11:23:16.164Z,19.03
2019-01-20T11:25:45.426Z,26.53
2019-01-20T11:28:14.677Z,15.93
2019-01-20T11:30:44.932Z,21.83
2019-01-20T11:33:14.160Z,18.23
2019-01-20T11:35:43.418Z,18.83
2019-01-20T11:38:13.611Z,17.03
2019-01-20T11:40:44.822Z,22.73
2019-01-20T11:43:14.057Z,16.90
2019-01-20T11:45:43.338Z,17.20
2019-01-20T11:48:12.660Z,23.13
2019-01-20T11:50:41.907Z,16.13
2019-01-20T11:53:11.173Z,23.03
2019-01-20T11:55:40.440Z,20.93
2019-01-20T11:58:09.685Z,18.23
2019-01-20T12:00:39.867Z,17.73
2019-01-20T12:03:09.139Z,28.63
2019-01-20T12:05:38.378Z,25.63
2019-01-20T12:08:10.321Z,21.53
2019-01-20T12:10:41.603Z,27.77
2019-01-20T12:13:12.248Z,18.03
2019-01-20T12:15:41.493Z,25.47
2019-01-20T12:18:10.744Z,24.37
2019-01-20T12:20:40.000Z,15.17
2019-01-20T12:23:09.423Z,16.63
2019-01-20T12:25:38.667Z,20.07
2019-01-20T12:28:08.918Z,16.83
2019-01-20T12:30:39.519Z,17.33
2019-01-20T12:33:09.728Z,19.63
2019-01-20T12:35:38.968Z,15.20
2019-01-20T12:38:08.218Z,15.90
2019-01-20T12:40:40.287Z,19.27
2019-01-20T12:43:09.593Z,15.37
2019-01-20T12:45:38.848Z,16.10
2019-01-20T12:48:08.118Z,14.10
2019-01-20T12:50:39.319Z,15.40
2019-01-20T12:53:08.580Z,20.37
2019-01-20T12:55:37.827Z,30.93
2019-01-20T12:58:07.240Z,23.07
2019-01-20T13:00:36.542Z,12.03
2019-01-20T13:03:05.852Z,17.23
2019-01-20T13:05:36.165Z,11.63
2019-01-20T13:08:12.364Z,15.03
2019-01-20T13:10:41.867Z,16.77
2019-01-20T13:13:17.832Z,18.27
2019-01-20T13:15:48.048Z,16.00
2019-01-20T13:18:18.261Z,19.07
2019-01-20T13:20:47.545Z,19.43
2019-01-20T13:23:17.749Z,19.07
2019-01-20T13:25:47.052Z,20.53
2019-01-20T13:28:16.279Z,14.17
2019-01-20T13:30:46.605Z,15.87
2019-01-20T13:33:19.462Z,21.47
2019-01-20T13:35:48.769Z,22.83
2019-01-20T13:38:18.006Z,15.17
2019-01-20T13:40:50.600Z,14.60
2019-01-20T13:43:19.841Z,14.13
2019-01-20T13:45:49.115Z,14.73
2019-01-20T13:48:18.341Z,13.87
2019-01-20T13:50:48.162Z,27.60
2019-01-20T13:53:18.409Z,13.33
2019-01-20T13:55:48.633Z,13.80
2019-01-20T13:58:17.871Z,14.10
2019-01-20T14:00:47.112Z,15.03
2019-01-20T14:03:16.374Z,17.93
2019-01-20T14:05:45.630Z,16.00
2019-01-20T14:08:14.889Z,10.67
2019-01-20T14:10:46.067Z,11.03
2019-01-20T14:13:16.296Z,15.97
2019-01-20T14:15:46.520Z,12.60
2019-01-20T14:18:15.789Z,13.33
2019-01-20T14:20:45.029Z,14.93
2019-01-20T14:23:14.285Z,17.63
2019-01-20T14:25:43.510Z,21.70
2019-01-20T14:28:12.779Z,16.67
2019-01-20T14:30:42.994Z,21.70
2019-01-20T14:33:12.253Z,18.07
2019-01-20T14:35:42.436Z,21.53
2019-01-20T14:38:11.711Z,13.67
2019-01-20T14:40:40.948Z,14.87
2019-01-20T14:43:10.204Z,13.23
2019-01-20T14:45:40.356Z,14.97
2019-01-20T14:48:09.599Z,24.17
2019-01-20T14:50:39.793Z,13.07
2019-01-20T14:53:10.951Z,21.07
2019-01-20T14:55:40.176Z,19.43
2019-01-20T14:58:09.422Z,20.67
2019-01-20T15:00:40.742Z,18.37
2019-01-20T15:03:09.991Z,17.93
2019-01-20T15:05:39.336Z,18.60
2019-01-20T15:08:08.706Z,21.47
2019-01-20T15:10:40.752Z,16.67
2019-01-20T15:13:09.977Z,14.87
2019-01-20T15:15:40.287Z,21.63
2019-01-20T15:18:10.652Z,18.43
2019-01-20T15:20:39.974Z,17.30
2019-01-20T15:23:09.442Z,18.63
2019-01-20T15:25:39.657Z,17.70
2019-01-20T15:28:08.979Z,20.40
2019-01-20T15:30:38.251Z,24.93
2019-01-20T15:33:07.569Z,20.57
2019-01-20T15:35:37.771Z,20.63
2019-01-20T15:38:08.053Z,21.77
2019-01-20T15:40:38.301Z,18.37
2019-01-20T15:43:07.547Z,25.20
2019-01-20T15:45:36.802Z,21.03
2019-01-20T15:48:06.102Z,22.40
2019-01-20T15:50:35.342Z,20.10
2019-01-20T15:53:04.851Z,25.30
2019-01-20T15:55:34.115Z,18.97
2019-01-20T15:58:03.339Z,26.40
2019-01-20T16:00:32.977Z,17.70
2019-01-20T16:03:02.300Z,19.17
2019-01-20T16:05:31.615Z,28.57
2019-01-20T16:08:00.883Z,20.17
2019-01-20T16:10:30.133Z,24.53
2019-01-20T16:12:59.386Z,28.13
2019-01-20T16:15:32.786Z,21.57
2019-01-20T16:18:03.049Z,18.83
2019-01-20T16:20:32.313Z,21.30
2019-01-20T16:23:01.733Z,18.53
2019-01-20T16:25:33.134Z,17.70
2019-01-20T16:28:02.447Z,23.77
2019-01-20T16:30:33.761Z,17.63
2019-01-20T16:33:03.081Z,17.43
2019-01-20T16:35:33.325Z,22.40
2019-01-20T16:38:03.043Z,17.93
2019-01-20T16:40:32.277Z,22.80
2019-01-20T16:43:01.537Z,21.47
2019-01-20T16:45:42.086Z,18.77
2019-01-20T16:48:11.190Z,16.70
2019-01-20T16:50:40.422Z,18.03
2019-01-20T16:53:09.749Z,19.50
2019-01-20T16:55:39.044Z,28.57
2019-01-20T16:58:08.266Z,19.33
2019-01-20T17:00:39.702Z,18.90
2019-01-20T17:03:09.967Z,25.03
2019-01-20T17:05:39.227Z,23.83
2019-01-20T17:08:08.450Z,23.53
2019-01-20T17:10:39.233Z,19.90
2019-01-20T17:13:09.015Z,16.93
2019-01-20T17:15:41.958Z,21.83
2019-01-20T17:18:12.265Z,16.80
2019-01-20T17:20:41.747Z,18.23
2019-01-20T17:23:11.062Z,22.17
2019-01-20T17:25:40.315Z,20.43
2019-01-20T17:28:09.643Z,18.90
2019-01-20T17:30:41.261Z,19.50
2019-01-20T17:33:11.703Z,20.90
2019-01-20T17:35:40.955Z,19.17
2019-01-20T17:38:11.251Z,21.10
2019-01-20T17:40:41.424Z,20.63
2019-01-20T17:43:16.612Z,23.27
2019-01-20T17:45:48.523Z,16.37
2019-01-20T17:48:16.813Z,19.43
2019-01-20T17:50:46.148Z,22.00
2019-01-20T17:53:15.471Z,19.40
2019-01-20T17:55:44.794Z,20.53
2019-01-20T17:58:14.063Z,21.40
2019-01-20T18:00:44.943Z,20.33
2019-01-20T18:03:14.402Z,17.23
2019-01-20T18:05:44.687Z,17.03
2019-01-20T18:08:13.948Z,19.27
2019-01-20T18:10:45.176Z,18.23
2019-01-20T18:13:14.447Z,22.80
2019-01-20T18:15:43.704Z,23.73
2019-01-20T18:18:12.962Z,19.67
2019-01-20T18:20:44.113Z,23.97
2019-01-20T18:23:13.385Z,18.37
2019-01-20T18:25:42.641Z,17.87
2019-01-20T18:28:12.904Z,21.77
2019-01-20T18:30:42.159Z,20.10
2019-01-20T18:33:14.081Z,18.63
2019-01-20T18:35:44.243Z,19.43
2019-01-20T18:38:14.440Z,21.33
2019-01-20T18:40:44.708Z,23.07
2019-01-20T18:43:13.949Z,21.73
2019-01-20T18:45:45.836Z,20.17
2019-01-20T18:48:15.074Z,22.20
2019-01-20T18:50:44.332Z,20.73
2019-01-20T18:53:13.577Z,22.00
2019-01-20T18:55:43.838Z,23.60
2019-01-20T18:58:13.088Z,25.37
2019-01-20T19:00:47.223Z,20.57
2019-01-20T19:03:16.448Z,20.07
2019-01-20T19:05:45.693Z,21.67
2019-01-20T19:08:14.945Z,20.20
2019-01-20T19:10:46.212Z,20.83
2019-01-20T19:13:16.444Z,22.23
2019-01-20T19:15:45.676Z,22.73
2019-01-20T19:18:19.219Z,23.87
2019-01-20T19:20:45.948Z,20.90
2019-01-20T19:23:17.130Z,23.80
2019-01-20T19:25:46.363Z,23.20
2019-01-20T19:28:15.691Z,23.47
2019-01-20T19:30:45.085Z,24.97
2019-01-20T19:33:14.362Z,21.87
2019-01-20T19:35:43.634Z,22.27
2019-01-20T19:38:13.844Z,23.20
2019-01-20T19:40:43.089Z,24.43
2019-01-20T19:43:13.372Z,21.97
2019-01-20T19:45:42.666Z,21.60
2019-01-20T19:48:19.917Z,20.27
2019-01-20T19:50:43.832Z,25.80
2019-01-20T19:53:13.099Z,22.83
2019-01-20T19:55:43.335Z,22.37
2019-01-20T19:58:12.663Z,23.70
2019-01-20T20:00:41.942Z,20.40
2019-01-20T20:03:13.336Z,23.80
2019-01-20T20:05:42.571Z,23.47
2019-01-20T20:08:11.872Z,23.63
2019-01-20T20:10:41.196Z,24.30
2019-01-20T20:13:10.496Z,27.73
2019-01-20T20:15:40.738Z,23.80
2019-01-20T20:18:09.993Z,28.07
2019-01-20T20:20:40.255Z,22.60
2019-01-20T20:23:09.564Z,21.73
2019-01-20T20:25:38.822Z,25.10
2019-01-20T20:28:08.068Z,24.17
2019-01-20T20:30:37.398Z,24.07
2019-01-20T20:33:06.806Z,24.27
2019-01-20T20:35:36.145Z,22.73
2019-01-20T20:38:06.436Z,24.90
2019-01-20T20:40:40.016Z,25.40
2019-01-20T20:43:09.250Z,25.53
2019-01-20T20:45:38.528Z,27.03
2019-01-20T20:48:07.793Z,23.53
2019-01-20T20:50:38.038Z,24.73
2019-01-20T20:53:07.361Z,25.93
2019-01-20T20:55:36.618Z,23.73
2019-01-20T20:58:05.965Z,26.23
2019-01-20T21:00:37.719Z,25.10
2019-01-20T21:03:09.930Z,26.07
2019-01-20T21:05:41.156Z,26.63
2019-01-20T21:08:10.554Z,25.07
2019-01-20T21:10:40.811Z,26.23
2019-01-20T21:13:10.073Z,28.40
2019-01-20T21:15:39.305Z,29.10
2019-01-20T21:18:08.598Z,24.23
2019-01-20T21:20:37.876Z,29.83
2019-01-20T21:23:12.324Z,29.13
2019-01-20T21:25:40.988Z,30.10
2019-01-20T21:28:10.244Z,36.53
2019-01-20T21:30:40.414Z,32.77
2019-01-20T21:33:10.665Z,31.37
2019-01-20T21:35:39.983Z,29.13
2019-01-20T21:38:09.304Z,30.23
2019-01-20T21:40:38.568Z,31.57
2019-01-20T21:43:07.835Z,30.77
2019-01-20T21:45:38.990Z,29.23
2019-01-20T21:48:08.251Z,30.63
2019-01-20T21:50:37.502Z,28.87
2019-01-20T21:53:06.746Z,30.17
2019-01-20T21:55:36.000Z,32.87
2019-01-20T21:58:07.288Z,28.70
2019-01-20T22:00:36.557Z,28.33
2019-01-20T22:03:05.796Z,30.43
2019-01-20T22:05:35.115Z,31.00
2019-01-20T22:08:04.384Z,32.53
2019-01-20T22:10:34.575Z,32.40
2019-01-20T22:13:03.819Z,30.20
2019-01-20T22:15:33.083Z,29.87
2019-01-20T22:18:03.345Z,30.77
2019-01-20T22:20:32.627Z,27.67
2019-01-20T22:23:01.878Z,28.70
2019-01-20T22:25:31.140Z,31.47
2019-01-20T22:28:00.470Z,29.97
2019-01-20T22:30:29.834Z,31.30
2019-01-20T22:32:59.075Z,31.67
2019-01-20T22:35:28.357Z,33.70
2019-01-20T22:37:57.598Z,28.63
2019-01-20T22:40:27.795Z,29.93
2019-01-20T22:42:58.097Z,29.67
2019-01-20T22:45:28.502Z,32.00
2019-01-20T22:47:57.735Z,31.97
2019-01-20T22:50:27.793Z,28.70
2019-01-20T22:52:57.146Z,31.07
2019-01-20T22:55:27.468Z,33.60
2019-01-20T22:57:57.603Z,30.93
2019-01-20T23:00:37.977Z,26.17
2019-01-20T23:03:13.392Z,28.97
2019-01-20T23:05:42.647Z,26.33
2019-01-20T23:08:11.904Z,25.53
2019-01-20T23:10:41.139Z,23.67
2019-01-20T23:13:11.375Z,25.97
2019-01-20T23:15:40.676Z,28.13
2019-01-20T23:18:10.381Z,26.13
2019-01-20T23:20:39.643Z,33.60
2019-01-20T23:23:09.336Z,29.73
2019-01-20T23:25:38.553Z,31.07
2019-01-20T23:28:07.821Z,33.53
2019-01-20T23:30:37.166Z,29.97
2019-01-20T23:33:07.456Z,30.80
2019-01-20T23:35:38.026Z,27.67
2019-01-20T23:38:08.399Z,29.33
2019-01-20T23:40:37.703Z,31.17
2019-01-20T23:43:08.931Z,31.43
2019-01-20T23:45:38.222Z,32.20
2019-01-20T23:48:07.491Z,28.33
2019-01-20T23:50:36.764Z,30.73
2019-01-20T23:53:06.080Z,30.23
2019-01-20T23:55:37.330Z,27.67
2019-01-20T23:58:06.595Z,25.43
